createdAt,value
2023-01-31T00:01:14.008Z,96027.19
2023-01-31T00:03:40.760Z,96033.34
2023-01-31T00:06:33.690Z,96031.47
2023-01-31T00:09:00.473Z,96036.00
2023-01-31T00:11:27.336Z,96040.88
2023-01-31T00:13:53.831Z,96042.50
2023-01-31T00:16:20.422Z,96049.97
2023-01-31T00:18:46.924Z,96039.94
2023-01-31T00:21:15.039Z,96047.28
2023-01-31T00:23:41.993Z,96059.94
2023-01-31T00:26:12.615Z,96065.66
2023-01-31T00:28:39.531Z,96060.91
2023-01-31T00:31:06.078Z,96057.06
2023-01-31T00:33:33.095Z,96065.53
2023-01-31T00:36:05.356Z,96069.16
2023-01-31T00:38:31.830Z,96078.44
2023-01-31T00:40:58.302Z,96073.66
2023-01-31T00:43:24.731Z,96089.91
2023-01-31T00:45:51.154Z,96076.44
2023-01-31T00:48:17.570Z,96081.63
2023-01-31T00:50:44.058Z,96089.22
2023-01-31T00:53:10.956Z,96084.16
2023-01-31T00:55:37.982Z,96098.22
2023-01-31T00:58:04.468Z,96100.22
2023-01-31T01:00:30.978Z,96097.88
2023-01-31T01:02:57.380Z,96104.84
2023-01-31T01:05:23.832Z,96108.44
2023-01-31T01:07:50.277Z,96107.53
2023-01-31T01:10:16.838Z,96106.94
2023-01-31T01:12:43.288Z,96111.09
2023-01-31T01:15:09.916Z,96122.06
2023-01-31T01:17:36.435Z,96110.28
2023-01-31T01:20:04.060Z,96115.66
2023-01-31T01:22:31.023Z,96121.78
2023-01-31T01:24:57.495Z,96122.69
2023-01-31T01:27:23.942Z,96124.38
2023-01-31T01:29:50.373Z,96135.41
2023-01-31T01:32:16.890Z,96132.75
2023-01-31T01:34:43.600Z,96128.22
2023-01-31T01:37:11.997Z,96134.59
2023-01-31T01:39:38.819Z,96137.41
2023-01-31T01:42:05.805Z,96135.03
2023-01-31T01:44:47.566Z,96135.47
2023-01-31T01:47:17.968Z,96131.31
2023-01-31T01:49:44.509Z,96134.78
2023-01-31T01:52:11.230Z,96130.75
2023-01-31T01:54:40.582Z,96127.16
2023-01-31T01:57:07.036Z,96125.75
2023-01-31T01:59:42.776Z,96130.50
2023-01-31T02:02:09.242Z,96137.22
2023-01-31T02:04:37.193Z,96140.59
2023-01-31T02:07:03.683Z,96148.81
2023-01-31T02:09:50.374Z,96142.66
2023-01-31T02:12:16.904Z,96140.59
2023-01-31T02:14:43.572Z,96141.91
2023-01-31T02:17:17.158Z,96156.44
2023-01-31T02:19:57.292Z,96153.38
2023-01-31T02:22:27.358Z,96154.75
2023-01-31T02:24:53.825Z,96166.59
2023-01-31T02:27:20.238Z,96154.63
2023-01-31T02:29:52.678Z,96153.81
2023-01-31T02:32:25.447Z,96157.88
2023-01-31T02:34:59.996Z,96165.78
2023-01-31T02:37:29.236Z,96160.97
2023-01-31T02:40:07.906Z,96167.34
2023-01-31T02:42:48.030Z,96172.03
2023-01-31T02:45:14.567Z,96164.16
2023-01-31T02:47:40.983Z,96169.41
2023-01-31T02:50:07.415Z,96162.91
2023-01-31T02:52:40.175Z,96161.38
2023-01-31T02:55:28.276Z,96160.06
2023-01-31T02:57:55.489Z,96170.34
2023-01-31T03:00:22.921Z,96171.38
2023-01-31T03:02:49.591Z,96168.91
2023-01-31T03:05:26.091Z,96175.06
2023-01-31T03:07:56.668Z,96175.38
2023-01-31T03:10:41.879Z,96174.56
2023-01-31T03:13:18.549Z,96181.22
2023-01-31T03:16:24.110Z,96175.06
2023-01-31T03:19:13.870Z,96176.81
2023-01-31T03:21:43.378Z,96178.81
2023-01-31T03:24:09.790Z,96186.50
2023-01-31T03:26:36.785Z,96196.28
2023-01-31T03:29:03.491Z,96195.34
2023-01-31T03:31:30.566Z,96194.34
2023-01-31T03:33:58.294Z,96205.50
2023-01-31T03:36:26.968Z,96192.78
2023-01-31T03:38:56.621Z,96194.22
2023-01-31T03:41:29.347Z,96205.13
2023-01-31T03:43:58.918Z,96208.25
2023-01-31T03:46:30.521Z,96218.03
2023-01-31T03:48:57.002Z,96221.03
2023-01-31T03:51:24.807Z,96212.88
2023-01-31T03:54:10.200Z,96217.91
2023-01-31T03:56:42.846Z,96225.88
2023-01-31T03:59:13.271Z,96232.34
2023-01-31T04:01:41.936Z,96223.38
2023-01-31T04:04:09.506Z,96239.00
2023-01-31T04:06:35.969Z,96239.84
2023-01-31T04:09:02.577Z,96246.38
2023-01-31T04:11:29.391Z,96241.91
2023-01-31T04:13:55.926Z,96253.25
2023-01-31T04:16:23.528Z,96258.06
2023-01-31T04:18:51.770Z,96269.72
2023-01-31T04:21:18.296Z,96266.44
2023-01-31T04:23:44.729Z,96269.59
2023-01-31T04:26:11.306Z,96268.28
2023-01-31T04:28:37.830Z,96273.56
2023-01-31T04:31:04.496Z,96282.16
2023-01-31T04:33:31.041Z,96272.34
2023-01-31T04:35:57.588Z,96267.63
2023-01-31T04:38:24.007Z,96271.13
2023-01-31T04:40:50.444Z,96275.13
2023-01-31T04:43:16.984Z,96272.25
2023-01-31T04:45:43.406Z,96274.19
2023-01-31T04:48:10.153Z,96285.53
2023-01-31T04:50:36.699Z,96284.00
2023-01-31T04:53:03.276Z,96288.88
2023-01-31T04:55:29.706Z,96292.47
2023-01-31T04:57:56.162Z,96296.66
2023-01-31T05:00:22.731Z,96301.25
2023-01-31T05:02:50.458Z,96306.59
2023-01-31T05:05:17.106Z,96312.22
2023-01-31T05:07:44.176Z,96315.78
2023-01-31T05:10:10.959Z,96327.94
2023-01-31T05:12:37.406Z,96326.50
2023-01-31T05:15:04.643Z,96326.28
2023-01-31T05:17:31.547Z,96331.31
2023-01-31T05:19:58.065Z,96336.13
2023-01-31T05:22:24.766Z,96336.81
2023-01-31T05:24:51.287Z,96349.31
2023-01-31T05:27:18.139Z,96363.81
2023-01-31T05:29:45.022Z,96372.72
2023-01-31T05:32:11.939Z,96369.00
2023-01-31T05:34:38.568Z,96368.47
2023-01-31T05:37:05.024Z,96368.06
2023-01-31T05:39:31.513Z,96370.03
2023-01-31T05:41:58.147Z,96374.38
2023-01-31T05:44:24.785Z,96380.53
2023-01-31T05:46:51.270Z,96378.25
2023-01-31T05:49:17.944Z,96379.47
2023-01-31T05:52:16.474Z,96387.94
2023-01-31T05:54:42.975Z,96383.94
2023-01-31T05:57:09.533Z,96381.41
2023-01-31T05:59:36.004Z,96376.28
2023-01-31T06:02:02.506Z,96385.91
2023-01-31T06:04:29.111Z,96392.38
2023-01-31T06:06:55.706Z,96386.84
2023-01-31T06:09:22.224Z,96385.41
2023-01-31T06:11:48.688Z,96395.53
2023-01-31T06:14:15.184Z,96401.56
2023-01-31T06:16:41.797Z,96403.19
2023-01-31T06:19:08.318Z,96412.28
2023-01-31T06:21:35.228Z,96414.81
2023-01-31T06:24:01.747Z,96420.78
2023-01-31T06:26:28.310Z,96429.03
2023-01-31T06:28:58.119Z,96427.94
2023-01-31T06:31:24.694Z,96430.38
2023-01-31T06:37:19.621Z,96446.72
2023-01-31T06:39:46.106Z,96451.03
2023-01-31T06:42:12.576Z,96456.00
2023-01-31T06:44:39.659Z,96452.53
2023-01-31T06:47:06.115Z,96452.25
2023-01-31T06:49:32.696Z,96465.63
2023-01-31T06:51:59.523Z,96471.47
2023-01-31T06:54:26.150Z,96473.81
2023-01-31T06:56:52.636Z,96471.19
2023-01-31T06:59:19.285Z,96472.72
2023-01-31T07:01:45.845Z,96477.13
2023-01-31T07:04:12.430Z,96477.13
2023-01-31T07:06:38.898Z,96489.97
2023-01-31T07:09:05.350Z,96491.41
2023-01-31T07:11:31.784Z,96497.25
2023-01-31T07:13:58.270Z,96496.25
2023-01-31T07:16:25.592Z,96489.94
2023-01-31T07:18:53.350Z,96495.47
2023-01-31T07:21:19.899Z,96504.59
2023-01-31T07:23:46.444Z,96503.44
2023-01-31T07:26:12.937Z,96505.28
2023-01-31T07:28:39.412Z,96523.88
2023-01-31T07:31:06.268Z,96529.19
2023-01-31T07:33:33.611Z,96539.16
2023-01-31T07:36:01.635Z,96549.59
2023-01-31T07:38:28.178Z,96551.31
2023-01-31T07:40:54.604Z,96548.56
2023-01-31T07:43:21.307Z,96554.59
2023-01-31T07:45:47.784Z,96557.25
2023-01-31T07:48:14.275Z,96552.41
2023-01-31T07:50:40.915Z,96550.03
2023-01-31T07:53:07.627Z,96558.63
2023-01-31T07:55:34.085Z,96544.94
2023-01-31T07:58:00.587Z,96559.97
2023-01-31T08:00:45.932Z,96547.63
2023-01-31T08:03:33.473Z,96561.38
2023-01-31T08:06:18.438Z,96555.59
2023-01-31T08:08:45.279Z,96554.72
2023-01-31T08:11:11.952Z,96559.81
2023-01-31T08:13:39.100Z,96557.19
2023-01-31T08:16:06.223Z,96559.84
2023-01-31T08:18:32.906Z,96558.22
2023-01-31T08:20:59.589Z,96574.75
2023-01-31T08:23:27.127Z,96575.63
2023-01-31T08:25:59.768Z,96575.19
2023-01-31T08:28:29.150Z,96581.81
2023-01-31T08:34:24.624Z,96583.38
2023-01-31T08:36:51.261Z,96584.44
2023-01-31T08:39:17.723Z,96587.66
2023-01-31T08:41:44.463Z,96579.50
2023-01-31T08:44:12.054Z,96586.69
2023-01-31T08:46:39.072Z,96595.22
2023-01-31T08:49:06.463Z,96602.22
2023-01-31T08:51:33.093Z,96595.75
2023-01-31T08:53:59.553Z,96597.00
2023-01-31T08:56:26.166Z,96602.97
2023-01-31T08:58:53.059Z,96604.91
2023-01-31T09:01:19.960Z,96617.13
2023-01-31T09:03:46.679Z,96621.00
2023-01-31T09:06:14.763Z,96614.56
2023-01-31T09:08:41.683Z,96618.97
2023-01-31T09:11:08.239Z,96620.31
2023-01-31T09:13:34.949Z,96619.97
2023-01-31T09:16:02.931Z,96630.13
2023-01-31T09:18:30.015Z,96623.97
2023-01-31T09:20:56.628Z,96622.97
2023-01-31T09:23:23.344Z,96614.34
2023-01-31T09:25:53.854Z,96617.91
2023-01-31T09:28:20.410Z,96609.72
2023-01-31T09:30:46.858Z,96611.75
2023-01-31T09:33:13.455Z,96616.56
2023-01-31T09:35:39.911Z,96620.31
2023-01-31T09:38:06.328Z,96634.56
2023-01-31T09:40:33.312Z,96628.41
2023-01-31T09:43:02.010Z,96631.47
2023-01-31T09:45:30.736Z,96636.16
2023-01-31T09:47:57.853Z,96643.50
2023-01-31T09:50:33.199Z,96639.16
2023-01-31T09:52:59.733Z,96641.06
2023-01-31T09:55:29.549Z,96650.28
2023-01-31T09:57:58.557Z,96647.72
2023-01-31T10:00:32.769Z,96640.75
2023-01-31T10:03:19.604Z,96646.38
2023-01-31T10:05:48.808Z,96641.63
2023-01-31T10:08:27.458Z,96641.88
2023-01-31T10:10:57.939Z,96639.56
2023-01-31T10:13:35.495Z,96643.84
2023-01-31T10:16:11.303Z,96637.34
2023-01-31T10:18:38.583Z,96629.78
2023-01-31T10:21:11.873Z,96621.63
2023-01-31T10:23:39.465Z,96623.19
2023-01-31T10:26:11.267Z,96621.53
2023-01-31T10:28:43.675Z,96623.75
2023-01-31T10:31:27.391Z,96630.66
2023-01-31T10:34:02.349Z,96632.63
2023-01-31T10:36:32.227Z,96625.28
2023-01-31T10:39:08.325Z,96635.06
2023-01-31T10:41:36.871Z,96625.72
2023-01-31T10:44:07.508Z,96618.94
2023-01-31T10:46:34.145Z,96619.00
2023-01-31T10:49:00.843Z,96630.09
2023-01-31T10:51:33.541Z,96627.06
2023-01-31T10:54:13.127Z,96623.06
2023-01-31T10:56:58.023Z,96624.38
2023-01-31T10:59:30.332Z,96626.59
2023-01-31T11:01:56.822Z,96621.69
2023-01-31T11:04:30.399Z,96616.81
2023-01-31T11:06:57.715Z,96620.75
2023-01-31T11:09:25.266Z,96607.25
2023-01-31T11:12:00.659Z,96609.00
2023-01-31T11:14:27.150Z,96602.44
2023-01-31T11:17:16.857Z,96593.34
2023-01-31T11:19:47.044Z,96595.44
2023-01-31T11:22:26.758Z,96595.91
2023-01-31T11:24:53.210Z,96596.50
2023-01-31T11:27:24.842Z,96599.19
2023-01-31T11:29:51.622Z,96592.91
2023-01-31T11:32:19.130Z,96592.34
2023-01-31T11:34:56.625Z,96594.09
2023-01-31T11:37:23.494Z,96586.03
2023-01-31T11:39:59.659Z,96584.28
2023-01-31T11:42:26.526Z,96582.06
2023-01-31T11:45:04.290Z,96576.81
2023-01-31T11:47:40.230Z,96573.44
2023-01-31T11:50:07.882Z,96573.19
2023-01-31T11:52:34.724Z,96564.56
2023-01-31T11:55:03.129Z,96558.34
2023-01-31T11:57:33.877Z,96560.47
2023-01-31T12:00:01.260Z,96558.22
2023-01-31T12:02:31.284Z,96560.47
2023-01-31T12:04:57.778Z,96558.22
2023-01-31T12:07:25.390Z,96564.09
2023-01-31T12:09:52.013Z,96560.22
2023-01-31T12:12:30.133Z,96548.88
2023-01-31T12:15:00.661Z,96552.97
2023-01-31T12:17:28.561Z,96556.25
2023-01-31T12:20:05.584Z,96558.00
2023-01-31T12:26:06.242Z,96560.81
2023-01-31T12:28:38.396Z,96554.94
2023-01-31T12:31:17.740Z,96553.56
2023-01-31T12:33:58.290Z,96557.72
2023-01-31T12:36:35.028Z,96542.19
2023-01-31T12:39:02.260Z,96541.25
2023-01-31T12:41:33.681Z,96544.88
2023-01-31T12:44:16.391Z,96549.31
2023-01-31T12:46:43.028Z,96534.47
2023-01-31T12:49:22.049Z,96538.09
2023-01-31T12:52:07.578Z,96526.75
2023-01-31T12:55:03.727Z,96538.66
2023-01-31T12:57:35.424Z,96534.56
2023-01-31T13:00:16.381Z,96536.84
2023-01-31T13:02:51.864Z,96530.75
2023-01-31T13:05:22.717Z,96532.34
2023-01-31T13:07:51.194Z,96536.06
2023-01-31T13:10:26.074Z,96533.53
2023-01-31T13:12:52.532Z,96529.66
2023-01-31T13:15:41.204Z,96536.59
2023-01-31T13:18:07.851Z,96539.09
2023-01-31T13:20:48.644Z,96537.69
2023-01-31T13:23:23.447Z,96532.19
2023-01-31T13:25:51.725Z,96523.91
2023-01-31T13:28:22.809Z,96533.03
2023-01-31T13:30:52.124Z,96532.00
2023-01-31T13:33:21.729Z,96523.00
2023-01-31T13:35:48.655Z,96529.28
2023-01-31T13:38:15.811Z,96533.66
2023-01-31T13:40:51.320Z,96534.00
2023-01-31T13:43:18.856Z,96522.41
2023-01-31T13:45:48.407Z,96520.97
2023-01-31T13:48:35.182Z,96536.13
2023-01-31T13:51:03.434Z,96533.78
2023-01-31T13:53:36.975Z,96534.69
2023-01-31T13:56:03.752Z,96532.44
2023-01-31T13:58:35.093Z,96527.94
2023-01-31T14:01:07.422Z,96520.97
2023-01-31T14:03:53.001Z,96536.56
2023-01-31T14:06:19.850Z,96533.69
2023-01-31T14:08:50.041Z,96536.06
2023-01-31T14:11:22.323Z,96532.97
2023-01-31T14:13:50.025Z,96516.09
2023-01-31T14:16:47.605Z,96527.44
2023-01-31T14:19:20.816Z,96531.84
2023-01-31T14:22:02.538Z,96525.59
2023-01-31T14:24:47.424Z,96536.16
2023-01-31T14:27:20.992Z,96522.59
2023-01-31T14:30:07.888Z,96519.03
2023-01-31T14:32:34.432Z,96512.88
2023-01-31T14:35:07.661Z,96521.50
2023-01-31T14:37:34.162Z,96514.75
2023-01-31T14:40:09.496Z,96518.13
2023-01-31T14:42:39.931Z,96510.13
2023-01-31T14:45:06.896Z,96502.34
2023-01-31T14:47:49.199Z,96508.38
2023-01-31T14:50:24.986Z,96507.25
2023-01-31T14:52:52.888Z,96508.47
2023-01-31T14:55:25.147Z,96519.28
2023-01-31T14:57:52.506Z,96508.44
2023-01-31T15:00:20.361Z,96519.06
2023-01-31T15:02:46.953Z,96506.38
2023-01-31T15:05:14.968Z,96503.59
2023-01-31T15:08:00.243Z,96502.66
2023-01-31T15:10:45.474Z,96513.31
2023-01-31T15:13:32.125Z,96511.19
2023-01-31T15:15:58.967Z,96505.16
2023-01-31T15:18:26.809Z,96510.53
2023-01-31T15:20:55.698Z,96502.22
2023-01-31T15:23:26.011Z,96500.59
2023-01-31T15:25:52.515Z,96491.28
2023-01-31T15:28:20.171Z,96491.97
2023-01-31T15:30:46.768Z,96492.78
2023-01-31T15:33:32.878Z,96487.41
2023-01-31T15:36:00.966Z,96492.81
2023-01-31T15:38:42.087Z,96497.34
2023-01-31T15:41:21.092Z,96494.78
2023-01-31T15:43:47.870Z,96492.13
2023-01-31T15:46:22.169Z,96489.34
2023-01-31T15:48:49.059Z,96488.94
2023-01-31T15:51:15.674Z,96479.84
2023-01-31T15:53:42.462Z,96482.50
2023-01-31T15:56:15.247Z,96486.38
2023-01-31T15:58:45.657Z,96486.38
2023-01-31T16:01:13.144Z,96483.00
2023-01-31T16:03:40.481Z,96488.94
2023-01-31T16:06:07.399Z,96484.97
2023-01-31T16:08:34.201Z,96482.69
2023-01-31T16:11:01.313Z,96483.22
2023-01-31T16:13:28.098Z,96483.84
2023-01-31T16:15:54.601Z,96494.69
2023-01-31T16:18:21.202Z,96493.59
2023-01-31T16:20:48.753Z,96485.69
2023-01-31T16:23:33.940Z,96481.50
2023-01-31T16:26:00.428Z,96486.03
2023-01-31T16:28:27.912Z,96491.63
2023-01-31T16:30:54.585Z,96494.19
2023-01-31T16:33:24.246Z,96497.06
2023-01-31T16:36:23.204Z,96492.03
2023-01-31T16:38:55.181Z,96486.03
2023-01-31T16:41:37.986Z,96487.94
2023-01-31T16:44:04.546Z,96490.09
2023-01-31T16:46:38.519Z,96479.25
2023-01-31T16:49:25.423Z,96475.75
2023-01-31T16:51:54.522Z,96474.88
2023-01-31T16:54:22.176Z,96477.72
2023-01-31T16:57:05.774Z,96480.28
2023-01-31T16:59:37.449Z,96489.59
2023-01-31T17:02:23.935Z,96480.06
2023-01-31T17:04:51.563Z,96488.34
2023-01-31T17:07:22.355Z,96479.25
2023-01-31T17:09:49.562Z,96487.53
2023-01-31T17:12:20.984Z,96488.47
2023-01-31T17:14:47.662Z,96482.09
2023-01-31T17:17:20.592Z,96478.03
2023-01-31T17:19:48.378Z,96475.47
2023-01-31T17:22:15.424Z,96476.16
2023-01-31T17:24:41.994Z,96471.38
2023-01-31T17:27:10.146Z,96471.06
2023-01-31T17:29:36.706Z,96466.28
2023-01-31T17:32:03.352Z,96462.78
2023-01-31T17:34:29.823Z,96462.50
2023-01-31T17:36:56.449Z,96465.03
2023-01-31T17:39:22.938Z,96465.34
2023-01-31T17:41:49.406Z,96462.97
2023-01-31T17:44:16.020Z,96457.16
2023-01-31T17:46:43.156Z,96452.75
2023-01-31T17:49:09.736Z,96447.53
2023-01-31T17:51:36.320Z,96446.00
2023-01-31T17:54:02.862Z,96430.38
2023-01-31T17:56:29.340Z,96442.41
2023-01-31T17:58:55.871Z,96430.78
2023-01-31T18:01:22.376Z,96426.59
2023-01-31T18:03:49.182Z,96424.84
2023-01-31T18:06:15.714Z,96418.13
2023-01-31T18:08:42.421Z,96412.06
2023-01-31T18:11:14.103Z,96410.53
2023-01-31T18:13:40.747Z,96405.63
2023-01-31T18:16:11.178Z,96387.44
2023-01-31T18:18:40.707Z,96405.13
2023-01-31T18:21:10.918Z,96410.94
2023-01-31T18:23:37.381Z,96397.22
2023-01-31T18:26:04.916Z,96395.91
2023-01-31T18:28:31.472Z,96405.41
2023-01-31T18:31:01.945Z,96400.81
2023-01-31T18:33:29.206Z,96393.44
2023-01-31T18:35:56.944Z,96400.00
2023-01-31T18:38:23.521Z,96391.63
2023-01-31T18:40:50.017Z,96391.41
2023-01-31T18:46:38.784Z,96380.38
2023-01-31T18:49:05.421Z,96383.44
2023-01-31T18:51:31.962Z,96369.75
2023-01-31T18:53:58.933Z,96379.84
2023-01-31T18:56:25.444Z,96377.28
2023-01-31T18:58:54.939Z,96371.38
2023-01-31T19:01:22.310Z,96371.38
2023-01-31T19:03:58.198Z,96366.25
2023-01-31T19:06:25.635Z,96373.22
2023-01-31T19:08:52.250Z,96370.03
2023-01-31T19:11:19.163Z,96366.56
2023-01-31T19:13:45.814Z,96361.38
2023-01-31T19:16:13.497Z,96354.72
2023-01-31T19:18:40.045Z,96364.75
2023-01-31T19:21:15.715Z,96364.00
2023-01-31T19:23:42.296Z,96357.50
2023-01-31T19:26:09.800Z,96355.44
2023-01-31T19:28:38.172Z,96353.91
2023-01-31T19:31:05.190Z,96348.88
2023-01-31T19:33:31.676Z,96351.75
2023-01-31T19:35:59.068Z,96348.38
2023-01-31T19:38:25.520Z,96343.16
2023-01-31T19:40:52.010Z,96340.53
2023-01-31T19:43:18.669Z,96341.13
2023-01-31T19:45:45.242Z,96340.00
2023-01-31T19:48:11.846Z,96344.06
2023-01-31T19:50:38.350Z,96336.63
2023-01-31T19:53:04.851Z,96337.75
2023-01-31T19:55:32.333Z,96328.66
2023-01-31T19:57:58.891Z,96322.00
2023-01-31T20:00:25.372Z,96328.03
2023-01-31T20:02:51.875Z,96309.72
2023-01-31T20:05:18.543Z,96307.97
2023-01-31T20:07:45.442Z,96320.34
2023-01-31T20:10:12.108Z,96333.44
2023-01-31T20:12:40.057Z,96334.25
2023-01-31T20:15:08.915Z,96337.72
2023-01-31T20:17:35.514Z,96342.25
2023-01-31T20:20:02.703Z,96336.72
2023-01-31T20:22:29.379Z,96336.50
2023-01-31T20:24:57.165Z,96329.56
2023-01-31T20:27:24.649Z,96332.72
2023-01-31T20:29:51.179Z,96318.44
2023-01-31T20:32:18.017Z,96325.47
2023-01-31T20:34:44.638Z,96332.22
2023-01-31T20:37:11.455Z,96341.31
2023-01-31T20:39:38.138Z,96332.44
2023-01-31T20:42:04.764Z,96343.47
2023-01-31T20:44:31.252Z,96345.69
2023-01-31T20:46:57.923Z,96341.63
2023-01-31T20:49:25.624Z,96339.88
2023-01-31T20:51:52.327Z,96329.97
2023-01-31T20:54:19.110Z,96331.00
2023-01-31T20:56:45.843Z,96332.84
2023-01-31T20:59:12.435Z,96331.00
2023-01-31T21:01:38.934Z,96320.78
2023-01-31T21:04:06.087Z,96320.25
2023-01-31T21:06:32.537Z,96317.69
2023-01-31T21:08:59.017Z,96311.78
2023-01-31T21:11:25.531Z,96312.81
2023-01-31T21:13:51.951Z,96313.63
2023-01-31T21:16:18.587Z,96313.41
2023-01-31T21:18:45.232Z,96298.28
2023-01-31T21:21:12.585Z,96299.22
2023-01-31T21:23:39.612Z,96291.75
2023-01-31T21:26:06.930Z,96294.00
2023-01-31T21:28:33.501Z,96288.06
2023-01-31T21:31:00.355Z,96283.97
2023-01-31T21:33:28.299Z,96299.84
2023-01-31T21:35:55.026Z,96293.78
2023-01-31T21:38:21.506Z,96308.41
2023-01-31T21:40:47.989Z,96298.31
2023-01-31T21:43:14.488Z,96314.22
2023-01-31T21:45:40.996Z,96309.84
2023-01-31T21:48:26.623Z,96306.66
2023-01-31T21:50:53.093Z,96310.34
2023-01-31T21:53:19.584Z,96311.16
2023-01-31T21:55:46.054Z,96304.72
2023-01-31T21:58:12.496Z,96302.88
2023-01-31T22:00:38.956Z,96293.03
2023-01-31T22:03:05.418Z,96299.91
2023-01-31T22:05:31.976Z,96304.38
2023-01-31T22:07:58.490Z,96299.28
2023-01-31T22:10:24.984Z,96315.34
2023-01-31T22:12:51.432Z,96322.28
2023-01-31T22:15:17.996Z,96328.00
2023-01-31T22:17:44.711Z,96324.03
2023-01-31T22:20:12.336Z,96310.13
2023-01-31T22:22:38.785Z,96294.34
2023-01-31T22:25:05.489Z,96291.53
2023-01-31T22:27:31.952Z,96307.06
2023-01-31T22:30:06.577Z,96293.97
2023-01-31T22:32:40.614Z,96303.50
2023-01-31T22:35:07.204Z,96296.94
2023-01-31T22:37:33.763Z,96306.13
2023-01-31T22:40:00.242Z,96299.59
2023-01-31T22:42:26.694Z,96289.75
2023-01-31T22:44:53.181Z,96286.25
2023-01-31T22:47:19.668Z,96293.34
2023-01-31T22:49:46.095Z,96299.59
2023-01-31T22:52:12.699Z,96302.34
2023-01-31T22:54:39.187Z,96301.31
2023-01-31T22:57:05.616Z,96297.53
2023-01-31T22:59:32.070Z,96274.41
2023-01-31T23:01:58.538Z,96282.06
2023-01-31T23:04:25.031Z,96264.88
2023-01-31T23:06:51.752Z,96257.56
2023-01-31T23:09:18.219Z,96263.25
2023-01-31T23:11:44.682Z,96280.34
2023-01-31T23:14:11.134Z,96271.16
2023-01-31T23:16:56.218Z,96272.78
2023-01-31T23:19:22.652Z,96269.41
2023-01-31T23:21:49.483Z,96281.16
2023-01-31T23:24:16.003Z,96283.41
2023-01-31T23:26:42.773Z,96283.94
2023-01-31T23:29:09.241Z,96286.50
2023-01-31T23:31:36.283Z,96288.44
2023-01-31T23:34:06.127Z,96292.09
2023-01-31T23:36:32.580Z,96280.16
2023-01-31T23:38:59.066Z,96274.72
2023-01-31T23:41:25.556Z,96272.91
2023-01-31T23:43:51.992Z,96280.84
2023-01-31T23:46:18.477Z,96281.75
2023-01-31T23:48:44.914Z,96268.25
2023-01-31T23:51:11.357Z,96272.84
2023-01-31T23:53:38.329Z,96271.09
2023-01-31T23:56:05.100Z,96265.69
2023-01-31T23:58:31.531Z,96264.00
